< Typhoon 195908 1959 Season Typhoon 195910 >
Typhoon 195909 (JOAN)
General InformationTrack Information on Google Maps || Disaster Info.ResourceGoogle EarthGE AnimationAtom FeedGeoJSON
Detalied Best Track (Time Zone = UTC)
Year Month Day Hour Lat. Long. Pressure (hPa) Wind (kt) Class Image Chart
1959 8 23 18 12.0 139.4 1008 0 2 -- Chart
1959 8 24 00 12.5 140.4 1008 0 2 -- Chart
1959 8 24 06 13.1 141.8 1006 0 2 -- Chart
1959 8 24 12 13.8 142.9 1008 0 2 -- Chart
1959 8 24 18 14.5 144.0 1004 0 2 -- Chart
1959 8 25 00 15.6 144.4 1002 0 2 -- Chart
1959 8 25 06 15.9 143.2 1000 0 9 -- Chart
1959 8 25 12 15.9 142.3 1000 0 9 -- Chart
1959 8 25 18 15.9 141.1 998 0 9 -- Chart
1959 8 26 00 15.8 140.0 985 0 9 -- Chart
1959 8 26 06 15.8 139.0 985 0 9 -- Chart
1959 8 26 12 15.9 138.1 980 0 9 -- Chart
1959 8 26 18 16.1 137.1 980 0 9 -- Chart
1959 8 27 00 16.4 135.9 970 0 9 -- Chart
1959 8 27 06 16.6 134.3 955 0 9 -- Chart
1959 8 27 12 17.1 133.1 955 0 9 -- Chart
1959 8 27 18 17.8 131.8 950 0 9 -- Chart
1959 8 28 00 18.7 130.2 920 0 9 -- Chart
1959 8 28 06 19.2 129.2 900 0 9 -- Chart
1959 8 28 12 20.0 127.8 900 0 9 -- Chart
1959 8 28 18 20.7 126.2 900 0 9 -- Chart
1959 8 29 00 21.3 124.8 885 0 9 -- Chart
1959 8 29 06 22.1 123.2 900 0 9 -- Chart
1959 8 29 12 22.8 121.9 900 0 9 -- Chart
1959 8 29 18 23.4 120.8 950 0 9 -- Chart
1959 8 30 00 24.2 119.9 950 0 9 -- Chart
1959 8 30 06 25.0 118.2 975 0 9 -- Chart
1959 8 30 12 25.7 117.0 980 0 9 -- Chart
1959 8 30 18 27.0 116.9 980 0 9 -- Chart
1959 8 31 00 27.8 117.0 980 0 9 -- Chart
1959 8 31 06 28.3 117.1 992 0 2 -- Chart
1959 8 31 12 29.2 117.8 994 0 2 -- Chart
1959 8 31 18 30.4 120.0 996 0 6 -- Chart
1959 9 1 00 32.0 122.5 998 0 6 -- Chart
1959 9 1 06 35.0 125.2 998 0 6 -- Chart
1959 9 1 12 37.0 129.0 1000 0 6 -- Chart
1959 9 1 18 37.0 131.4 1000 0 6 -- Chart
1959 9 2 00 38.0 135.5 1000 0 6 -- Chart
1959 9 2 06 36.7 139.5 1000 0 6 -- Chart
1959 9 2 12 35.8 140.4 1004 0 6 -- Chart
Japan Meteorological Agency Best Track Data | Correction Date : 2013-03-19
< Typhoon 195908 1959 Season Typhoon 195910 >

Help